Terminal Aerodrome Forecast
Issued by NWS Twin Cities, MN

Home | Current Version | Previous Version | Graphics & Text | Print | Product List | Glossary On
Versions: 1 2 3 4 5 6 7 8 9 10 11 12 13 14 15 16 17 18 19 20 21 22 23
000
FTUS43 KMPX 220520
TAFMSP
TAF
KMSP 220520Z 2206/2312 23006KT P6SM VCTS SCT050CB BKN120
     FM220800 26006KT P6SM BKN050 OVC120
     FM221000 33009KT P6SM -SHRA OVC050
      TEMPO 2213/2216 5SM -TSRA BKN025CB OVC050
     FM222000 02006KT P6SM BKN025 OVC050
     FM230000 32009KT P6SM SCT100=

USA.gov is the U.S. government's official web portal to all federal, state and local government web resources and services.